CYHE

Hope Airport

Hope, British Columbia, Canada
METAR CYHE 181600Z AUTO 13008KT 070V140 9SM FEW200 08/06 A3019 RMK SLP225
Observed Flight Rules
Oct-18 @ 16:00 UTC (31 minutes ago) Visual Flight Rules
Wind Visibility Clouds
130° at 8 knots 9 miles
  • Few at 20,000' AGL
Temperatures Readings
Current 8°C / 46°F
Dewpoint 6°C / 43°F
Humidity 87%
Altimeter 30.19" Hg
Pressure 1022.5 hPa
Elevation 39
METAR CYHE 181600Z AUTO 13008KT 070V140 9SM FEW200 08/06 A3019 RMK SLP225
Observed Flight Rules
Oct-18 @ 16:00 UTC
(31 minutes ago)
VFR
Wind Visibility
130° at 8 knots 9 miles
Clouds
  • Few at 20,000' AGL
Temperature Dewpoint
8°C / 46°F 6°C / 43°F
Humidity Altimeter Pressure
87% 30.19" Hg 1022.5 hPa